sensor_id;sensor_type;location;lat;lon;timestamp;pressure;altitude;pressure_sealevel;temperature;humidity
34931;BME280;21134;49.646;8.560;2023-08-20T00:02:03;100754.97;;;23.83;84.99
34931;BME280;21134;49.646;8.560;2023-08-20T00:04:32;100752.47;;;23.81;85.63
34931;BME280;21134;49.646;8.560;2023-08-20T00:07:02;100750.00;;;23.78;85.96
34931;BME280;21134;49.646;8.560;2023-08-20T00:09:30;100747.72;;;23.72;86.58
34931;BME280;21134;49.646;8.560;2023-08-20T00:11:58;100765.44;;;23.65;86.59
34931;BME280;21134;49.646;8.560;2023-08-20T00:14:51;100754.31;;;23.62;86.89
34931;BME280;21134;49.646;8.560;2023-08-20T00:17:19;100755.56;;;23.55;87.77
34931;BME280;21134;49.646;8.560;2023-08-20T00:19:46;100761.00;;;23.50;87.37
34931;BME280;21134;49.646;8.560;2023-08-20T00:22:12;100760.47;;;23.43;87.62
34931;BME280;21134;49.646;8.560;2023-08-20T00:24:41;100762.44;;;23.38;87.42
34931;BME280;21134;49.646;8.560;2023-08-20T00:27:07;100764.38;;;23.35;87.68
34931;BME280;21134;49.646;8.560;2023-08-20T00:29:34;100770.56;;;23.32;88.43
34931;BME280;21134;49.646;8.560;2023-08-20T00:32:00;100770.66;;;23.31;88.34
34931;BME280;21134;49.646;8.560;2023-08-20T00:34:27;100771.28;;;23.36;88.12
34931;BME280;21134;49.646;8.560;2023-08-20T00:36:54;100775.81;;;23.32;88.07
34931;BME280;21134;49.646;8.560;2023-08-20T00:39:20;100776.88;;;23.28;88.51
34931;BME280;21134;49.646;8.560;2023-08-20T00:41:48;100772.59;;;23.27;88.89
34931;BME280;21134;49.646;8.560;2023-08-20T00:44:14;100772.75;;;23.24;89.64
34931;BME280;21134;49.646;8.560;2023-08-20T00:46:41;100770.56;;;23.15;90.08
34931;BME280;21134;49.646;8.560;2023-08-20T00:49:08;100782.00;;;23.12;89.94
34931;BME280;21134;49.646;8.560;2023-08-20T00:51:35;100770.97;;;23.07;90.57
34931;BME280;21134;49.646;8.560;2023-08-20T00:54:03;100769.34;;;23.05;91.00
34931;BME280;21134;49.646;8.560;2023-08-20T00:56:29;100770.19;;;23.05;91.72
34931;BME280;21134;49.646;8.560;2023-08-20T00:58:58;100779.00;;;23.03;91.87
34931;BME280;21134;49.646;8.560;2023-08-20T01:01:25;100777.09;;;23.06;91.18
34931;BME280;21134;49.646;8.560;2023-08-20T01:03:51;100785.16;;;23.02;91.35
34931;BME280;21134;49.646;8.560;2023-08-20T01:06:22;100781.84;;;22.98;92.03
34931;BME280;21134;49.646;8.560;2023-08-20T01:12:16;100782.16;;;22.90;92.39
34931;BME280;21134;49.646;8.560;2023-08-20T01:14:44;100777.03;;;22.89;92.44
34931;BME280;21134;49.646;8.560;2023-08-20T01:17:11;100779.78;;;22.86;92.12
34931;BME280;21134;49.646;8.560;2023-08-20T01:19:37;100771.41;;;22.79;91.86
34931;BME280;21134;49.646;8.560;2023-08-20T01:25:18;100767.53;;;22.69;92.29
34931;BME280;21134;49.646;8.560;2023-08-20T01:27:56;100771.19;;;22.65;92.86
34931;BME280;21134;49.646;8.560;2023-08-20T01:30:26;100762.81;;;22.58;92.77
34931;BME280;21134;49.646;8.560;2023-08-20T01:32:54;100768.16;;;22.55;93.15
34931;BME280;21134;49.646;8.560;2023-08-20T01:35:24;100764.84;;;22.51;93.19
34931;BME280;21134;49.646;8.560;2023-08-20T01:37:51;100762.38;;;22.48;93.54
34931;BME280;21134;49.646;8.560;2023-08-20T01:40:18;100759.09;;;22.45;93.55
34931;BME280;21134;49.646;8.560;2023-08-20T01:42:44;100757.47;;;22.42;94.21
34931;BME280;21134;49.646;8.560;2023-08-20T01:45:10;100755.91;;;22.38;94.54
34931;BME280;21134;49.646;8.560;2023-08-20T01:47:38;100748.31;;;22.34;95.04
34931;BME280;21134;49.646;8.560;2023-08-20T01:50:05;100742.47;;;22.28;95.20
34931;BME280;21134;49.646;8.560;2023-08-20T01:52:33;100737.28;;;22.27;95.23
34931;BME280;21134;49.646;8.560;2023-08-20T01:55:00;100739.84;;;22.28;94.71
34931;BME280;21134;49.646;8.560;2023-08-20T01:57:26;100735.06;;;22.19;94.83
34931;BME280;21134;49.646;8.560;2023-08-20T01:59:52;100737.09;;;22.11;95.22
34931;BME280;21134;49.646;8.560;2023-08-20T02:02:19;100748.81;;;22.02;95.75
34931;BME280;21134;49.646;8.560;2023-08-20T02:04:47;100737.88;;;21.94;96.35
34931;BME280;21134;49.646;8.560;2023-08-20T02:07:14;100744.28;;;21.87;96.89
34931;BME280;21134;49.646;8.560;2023-08-20T02:09:40;100737.44;;;21.85;96.97
34931;BME280;21134;49.646;8.560;2023-08-20T02:12:07;100741.00;;;21.82;97.01
34931;BME280;21134;49.646;8.560;2023-08-20T02:14:34;100743.69;;;21.80;97.15
34931;BME280;21134;49.646;8.560;2023-08-20T02:17:00;100743.13;;;21.74;97.13
34931;BME280;21134;49.646;8.560;2023-08-20T02:19:27;100743.31;;;21.69;97.27
34931;BME280;21134;49.646;8.560;2023-08-20T02:21:55;100741.03;;;21.62;97.82
34931;BME280;21134;49.646;8.560;2023-08-20T02:24:21;100748.84;;;21.62;97.75
34931;BME280;21134;49.646;8.560;2023-08-20T02:26:48;100748.06;;;21.59;98.24
34931;BME280;21134;49.646;8.560;2023-08-20T02:29:14;100751.81;;;21.54;98.61
34931;BME280;21134;49.646;8.560;2023-08-20T02:31:40;100764.28;;;21.46;99.53
34931;BME280;21134;49.646;8.560;2023-08-20T02:34:07;100764.53;;;21.40;99.62
34931;BME280;21134;49.646;8.560;2023-08-20T02:36:33;100763.81;;;21.36;99.91
34931;BME280;21134;49.646;8.560;2023-08-20T02:39:01;100769.03;;;21.36;99.89
34931;BME280;21134;49.646;8.560;2023-08-20T02:41:29;100770.78;;;21.35;100.00
34931;BME280;21134;49.646;8.560;2023-08-20T02:43:55;100775.03;;;21.38;100.00
34931;BME280;21134;49.646;8.560;2023-08-20T02:46:21;100778.59;;;21.35;100.00
34931;BME280;21134;49.646;8.560;2023-08-20T02:48:48;100780.38;;;21.33;99.90
34931;BME280;21134;49.646;8.560;2023-08-20T02:51:14;100775.28;;;21.30;100.00
34931;BME280;21134;49.646;8.560;2023-08-20T02:53:41;100775.38;;;21.29;100.00
34931;BME280;21134;49.646;8.560;2023-08-20T02:56:08;100775.25;;;21.32;99.69
34931;BME280;21134;49.646;8.560;2023-08-20T02:58:35;100773.47;;;21.32;99.25
34931;BME280;21134;49.646;8.560;2023-08-20T03:01:01;100770.03;;;21.32;99.43
34931;BME280;21134;49.646;8.560;2023-08-20T03:03:28;100769.03;;;21.36;99.27
34931;BME280;21134;49.646;8.560;2023-08-20T03:05:54;100772.56;;;21.33;99.33
34931;BME280;21134;49.646;8.560;2023-08-20T03:08:21;100771.91;;;21.28;99.90
34931;BME280;21134;49.646;8.560;2023-08-20T03:10:47;100769.31;;;21.28;99.74
34931;BME280;21134;49.646;8.560;2023-08-20T03:13:15;100777.13;;;21.28;99.87
34931;BME280;21134;49.646;8.560;2023-08-20T03:15:41;100775.50;;;21.26;100.00
34931;BME280;21134;49.646;8.560;2023-08-20T03:18:08;100775.50;;;21.26;100.00
34931;BME280;21134;49.646;8.560;2023-08-20T03:20:34;100771.97;;;21.27;100.00
34931;BME280;21134;49.646;8.560;2023-08-20T03:23:01;100776.13;;;21.31;100.00
34931;BME280;21134;49.646;8.560;2023-08-20T03:25:27;100764.97;;;21.29;99.84
34931;BME280;21134;49.646;8.560;2023-08-20T03:27:53;100771.13;;;21.26;100.00
34931;BME280;21134;49.646;8.560;2023-08-20T03:30:21;100772.75;;;21.29;100.00
34931;BME280;21134;49.646;8.560;2023-08-20T03:32:48;100781.34;;;21.31;99.62
34931;BME280;21134;49.646;8.560;2023-08-20T03:35:14;100776.94;;;21.33;99.35
34931;BME280;21134;49.646;8.560;2023-08-20T03:37:41;100777.13;;;21.28;99.88
34931;BME280;21134;49.646;8.560;2023-08-20T03:40:08;100763.38;;;21.25;100.00
34931;BME280;21134;49.646;8.560;2023-08-20T03:42:34;100760.03;;;21.21;100.00
34931;BME280;21134;49.646;8.560;2023-08-20T03:45:01;100751.59;;;21.16;100.00
34931;BME280;21134;49.646;8.560;2023-08-20T03:47:28;100759.53;;;21.13;100.00
34931;BME280;21134;49.646;8.560;2023-08-20T03:49:55;100761.16;;;21.16;100.00
34931;BME280;21134;49.646;8.560;2023-08-20T03:52:21;100764.78;;;21.11;100.00
34931;BME280;21134;49.646;8.560;2023-08-20T03:54:48;100765.09;;;21.04;100.00
34931;BME280;21134;49.646;8.560;2023-08-20T03:57:15;100765.66;;;20.90;100.00
34931;BME280;21134;49.646;8.560;2023-08-20T03:59:41;100758.97;;;20.83;100.00
34931;BME280;21134;49.646;8.560;2023-08-20T04:02:10;100761.66;;;20.81;100.00
34931;BME280;21134;49.646;8.560;2023-08-20T04:04:38;100764.41;;;20.77;100.00
34931;BME280;21134;49.646;8.560;2023-08-20T04:07:04;100772.41;;;20.72;100.00
34931;BME280;21134;49.646;8.560;2023-08-20T04:09:32;100767.25;;;20.71;100.00
34931;BME280;21134;49.646;8.560;2023-08-20T04:11:58;100769.84;;;20.71;100.00
34931;BME280;21134;49.646;8.560;2023-08-20T04:14:25;100771.50;;;20.73;100.00
34931;BME280;21134;49.646;8.560;2023-08-20T04:16:52;100779.41;;;20.70;100.00
34931;BME280;21134;49.646;8.560;2023-08-20T04:19:18;100775.97;;;20.70;100.00
34931;BME280;21134;49.646;8.560;2023-08-20T04:21:46;100783.97;;;20.65;100.00
34931;BME280;21134;49.646;8.560;2023-08-20T04:24:12;100783.03;;;20.66;100.00
34931;BME280;21134;49.646;8.560;2023-08-20T04:26:39;100782.25;;;20.64;100.00
34931;BME280;21134;49.646;8.560;2023-08-20T04:29:06;100779.59;;;20.65;100.00
34931;BME280;21134;49.646;8.560;2023-08-20T04:31:32;100782.94;;;20.69;100.00
34931;BME280;21134;49.646;8.560;2023-08-20T04:33:59;100787.22;;;20.70;100.00
34931;BME280;21134;49.646;8.560;2023-08-20T04:36:25;100782.75;;;20.74;100.00
34931;BME280;21134;49.646;8.560;2023-08-20T04:38:53;100786.22;;;20.74;100.00
34931;BME280;21134;49.646;8.560;2023-08-20T04:41:19;100780.09;;;20.75;100.00
34931;BME280;21134;49.646;8.560;2023-08-20T04:43:46;100788.75;;;20.76;100.00
34931;BME280;21134;49.646;8.560;2023-08-20T04:46:12;100797.34;;;20.78;100.00
34931;BME280;21134;49.646;8.560;2023-08-20T04:48:40;100797.16;;;20.82;100.00
34931;BME280;21134;49.646;8.560;2023-08-20T04:51:07;100806.53;;;20.86;100.00
34931;BME280;21134;49.646;8.560;2023-08-20T04:53:33;100806.06;;;20.99;100.00
34931;BME280;21134;49.646;8.560;2023-08-20T04:56:01;100807.34;;;21.10;100.00
34931;BME280;21134;49.646;8.560;2023-08-20T04:58:28;100803.69;;;21.14;100.00
34931;BME280;21134;49.646;8.560;2023-08-20T05:00:54;100813.84;;;21.21;100.00
34931;BME280;21134;49.646;8.560;2023-08-20T05:03:21;100811.34;;;21.19;100.00
34931;BME280;21134;49.646;8.560;2023-08-20T05:05:50;100823.63;;;21.16;100.00
34931;BME280;21134;49.646;8.560;2023-08-20T05:08:17;100825.84;;;21.25;100.00
34931;BME280;21134;49.646;8.560;2023-08-20T05:10:43;100821.31;;;21.30;100.00
34931;BME280;21134;49.646;8.560;2023-08-20T05:13:11;100823.13;;;21.50;98.86
34931;BME280;21134;49.646;8.560;2023-08-20T05:15:37;100822.75;;;21.59;98.29
34931;BME280;21134;49.646;8.560;2023-08-20T05:18:04;100821.19;;;21.55;98.66
34931;BME280;21134;49.646;8.560;2023-08-20T05:20:31;100829.13;;;21.72;97.60
34931;BME280;21134;49.646;8.560;2023-08-20T05:22:57;100829.66;;;21.80;96.90
34931;BME280;21134;49.646;8.560;2023-08-20T05:25:23;100828.69;;;21.83;96.74
34931;BME280;21134;49.646;8.560;2023-08-20T05:27:50;100836.56;;;21.81;97.17
34931;BME280;21134;49.646;8.560;2023-08-20T05:30:18;100834.50;;;21.90;96.60
34931;BME280;21134;49.646;8.560;2023-08-20T05:32:44;100841.97;;;21.97;96.00
34931;BME280;21134;49.646;8.560;2023-08-20T05:35:11;100840.88;;;22.03;95.93
34931;BME280;21134;49.646;8.560;2023-08-20T05:37:37;100838.00;;;22.09;95.70
34931;BME280;21134;49.646;8.560;2023-08-20T05:40:05;100837.78;;;22.14;95.26
34931;BME280;21134;49.646;8.560;2023-08-20T05:42:32;100839.56;;;22.34;93.33
34931;BME280;21134;49.646;8.560;2023-08-20T05:44:58;100846.34;;;22.17;94.25
34931;BME280;21134;49.646;8.560;2023-08-20T05:47:26;100845.31;;;22.21;94.59
34931;BME280;21134;49.646;8.560;2023-08-20T05:49:52;100851.50;;;22.19;94.72
34931;BME280;21134;49.646;8.560;2023-08-20T05:52:19;100849.75;;;22.19;94.44
34931;BME280;21134;49.646;8.560;2023-08-20T05:54:45;100852.09;;;22.25;94.14
34931;BME280;21134;49.646;8.560;2023-08-20T05:57:12;100855.78;;;22.20;94.54
34931;BME280;21134;49.646;8.560;2023-08-20T05:59:38;100859.06;;;22.25;94.47
34931;BME280;21134;49.646;8.560;2023-08-20T06:02:05;100851.47;;;22.39;93.42
34931;BME280;21134;49.646;8.560;2023-08-20T06:04:33;100852.97;;;22.45;93.65
34931;BME280;21134;49.646;8.560;2023-08-20T06:06:59;100843.03;;;22.53;92.82
34931;BME280;21134;49.646;8.560;2023-08-20T06:09:26;100856.38;;;22.66;92.19
34931;BME280;21134;49.646;8.560;2023-08-20T06:11:53;100851.06;;;22.67;93.17
34931;BME280;21134;49.646;8.560;2023-08-20T06:14:19;100852.44;;;22.76;92.91
34931;BME280;21134;49.646;8.560;2023-08-20T06:16:45;100861.47;;;22.88;91.95
34931;BME280;21134;49.646;8.560;2023-08-20T06:19:12;100863.19;;;22.87;92.34
34931;BME280;21134;49.646;8.560;2023-08-20T06:21:39;100865.94;;;22.84;92.86
34931;BME280;21134;49.646;8.560;2023-08-20T06:24:06;100870.97;;;22.89;92.93
34931;BME280;21134;49.646;8.560;2023-08-20T06:26:34;100880.44;;;22.91;93.19
34931;BME280;21134;49.646;8.560;2023-08-20T06:29:00;100873.38;;;22.93;92.38
34931;BME280;21134;49.646;8.560;2023-08-20T06:31:26;100886.28;;;22.96;93.07
34931;BME280;21134;49.646;8.560;2023-08-20T06:33:53;100879.50;;;22.92;93.59
34931;BME280;21134;49.646;8.560;2023-08-20T06:36:19;100872.81;;;23.25;91.61
34931;BME280;21134;49.646;8.560;2023-08-20T06:38:47;100876.09;;;23.28;91.40
34931;BME280;21134;49.646;8.560;2023-08-20T06:41:14;100877.34;;;23.38;91.29
34931;BME280;21134;49.646;8.560;2023-08-20T06:43:40;100880.59;;;23.43;91.35
34931;BME280;21134;49.646;8.560;2023-08-20T06:46:07;100881.38;;;23.63;90.83
34931;BME280;21134;49.646;8.560;2023-08-20T06:48:34;100888.81;;;23.89;88.77
34931;BME280;21134;49.646;8.560;2023-08-20T06:51:08;100885.13;;;24.11;87.62
34931;BME280;21134;49.646;8.560;2023-08-20T06:53:34;100883.41;;;24.45;85.96
34931;BME280;21134;49.646;8.560;2023-08-20T06:56:02;100884.19;;;24.63;85.20
34931;BME280;21134;49.646;8.560;2023-08-20T06:58:28;100878.97;;;24.78;84.00
34931;BME280;21134;49.646;8.560;2023-08-20T07:00:55;100887.00;;;24.75;83.63
34931;BME280;21134;49.646;8.560;2023-08-20T07:03:21;100886.81;;;24.78;83.35
34931;BME280;21134;49.646;8.560;2023-08-20T07:05:48;100890.28;;;24.79;83.43
34931;BME280;21134;49.646;8.560;2023-08-20T07:08:14;100884.03;;;24.66;83.73
34931;BME280;21134;49.646;8.560;2023-08-20T07:10:41;100876.97;;;24.50;85.43
34931;BME280;21134;49.646;8.560;2023-08-20T07:13:08;100879.63;;;24.66;85.20
34931;BME280;21134;49.646;8.560;2023-08-20T07:15:35;100882.19;;;24.68;85.08
34931;BME280;21134;49.646;8.560;2023-08-20T07:18:01;100883.84;;;24.69;84.41
34931;BME280;21134;49.646;8.560;2023-08-20T07:20:28;100885.47;;;24.71;84.15
34931;BME280;21134;49.646;8.560;2023-08-20T07:22:54;100888.09;;;24.71;84.68
34931;BME280;21134;49.646;8.560;2023-08-20T07:25:21;100884.88;;;24.82;84.18
34931;BME280;21134;49.646;8.560;2023-08-20T07:27:47;100884.47;;;24.90;84.20
34931;BME280;21134;49.646;8.560;2023-08-20T07:30:15;100880.09;;;25.06;82.94
34931;BME280;21134;49.646;8.560;2023-08-20T07:32:41;100880.63;;;25.13;82.55
34931;BME280;21134;49.646;8.560;2023-08-20T07:35:08;100886.28;;;25.21;82.30
34931;BME280;21134;49.646;8.560;2023-08-20T07:37:35;100892.09;;;25.26;81.93
34931;BME280;21134;49.646;8.560;2023-08-20T07:40:02;100887.47;;;25.31;82.35
34931;BME280;21134;49.646;8.560;2023-08-20T07:42:28;100893.34;;;25.50;81.19
34931;BME280;21134;49.646;8.560;2023-08-20T07:44:54;100889.78;;;25.51;81.08
34931;BME280;21134;49.646;8.560;2023-08-20T07:47:22;100885.09;;;25.72;79.71
34931;BME280;21134;49.646;8.560;2023-08-20T07:49:49;100890.69;;;25.82;79.08
34931;BME280;21134;49.646;8.560;2023-08-20T07:52:15;100893.72;;;26.05;78.43
34931;BME280;21134;49.646;8.560;2023-08-20T07:54:42;100893.50;;;25.93;77.51
34931;BME280;21134;49.646;8.560;2023-08-20T07:57:09;100895.31;;;26.07;77.34
34931;BME280;21134;49.646;8.560;2023-08-20T07:59:36;100903.97;;;26.24;77.35
34931;BME280;21134;49.646;8.560;2023-08-20T08:02:02;100899.00;;;26.48;75.99
34931;BME280;21134;49.646;8.560;2023-08-20T08:04:30;100899.94;;;26.47;75.07
34931;BME280;21134;49.646;8.560;2023-08-20T08:06:57;100904.44;;;26.44;75.31
34931;BME280;21134;49.646;8.560;2023-08-20T08:09:26;100900.38;;;26.55;75.75
34931;BME280;21134;49.646;8.560;2023-08-20T08:11:53;100908.69;;;26.61;74.75
34931;BME280;21134;49.646;8.560;2023-08-20T08:14:19;100905.28;;;26.74;74.29
34931;BME280;21134;49.646;8.560;2023-08-20T08:16:46;100904.53;;;26.86;74.09
34931;BME280;21134;49.646;8.560;2023-08-20T08:19:13;100910.28;;;26.78;74.90
34931;BME280;21134;49.646;8.560;2023-08-20T08:21:42;100911.94;;;26.94;73.80
34931;BME280;21134;49.646;8.560;2023-08-20T08:24:09;100918.66;;;27.12;74.11
34931;BME280;21134;49.646;8.560;2023-08-20T08:26:36;100922.72;;;27.18;73.33
34931;BME280;21134;49.646;8.560;2023-08-20T08:29:03;100915.91;;;27.28;73.91
34931;BME280;21134;49.646;8.560;2023-08-20T08:31:29;100907.44;;;27.37;74.71
34931;BME280;21134;49.646;8.560;2023-08-20T08:33:56;100912.53;;;27.53;71.46
34931;BME280;21134;49.646;8.560;2023-08-20T08:36:22;100908.25;;;27.52;71.58
34931;BME280;21134;49.646;8.560;2023-08-20T08:38:51;100908.28;;;27.65;72.57
34931;BME280;21134;49.646;8.560;2023-08-20T08:41:21;100912.50;;;27.67;71.25
34931;BME280;21134;49.646;8.560;2023-08-20T08:43:48;100911.41;;;27.84;70.51
34931;BME280;21134;49.646;8.560;2023-08-20T08:46:15;100914.81;;;27.99;69.26
34931;BME280;21134;49.646;8.560;2023-08-20T08:48:43;100918.91;;;28.03;69.99
34931;BME280;21134;49.646;8.560;2023-08-20T08:51:11;100922.09;;;28.08;69.70
34931;BME280;21134;49.646;8.560;2023-08-20T08:53:38;100916.06;;;28.19;68.02
34931;BME280;21134;49.646;8.560;2023-08-20T08:56:05;100914.41;;;28.05;69.43
34931;BME280;21134;49.646;8.560;2023-08-20T08:58:32;100914.06;;;28.10;67.85
34931;BME280;21134;49.646;8.560;2023-08-20T09:00:59;100917.53;;;28.23;67.72
34931;BME280;21134;49.646;8.560;2023-08-20T09:03:26;100921.66;;;28.40;68.25
34931;BME280;21134;49.646;8.560;2023-08-20T09:05:55;100917.56;;;28.61;66.97
34931;BME280;21134;49.646;8.560;2023-08-20T09:08:22;100915.66;;;28.76;65.56
34931;BME280;21134;49.646;8.560;2023-08-20T09:10:50;100923.13;;;28.69;66.10
34931;BME280;21134;49.646;8.560;2023-08-20T09:13:22;100921.13;;;28.73;65.84
34931;BME280;21134;49.646;8.560;2023-08-20T09:15:50;100920.47;;;28.82;66.50
34931;BME280;21134;49.646;8.560;2023-08-20T09:18:17;100922.03;;;28.97;66.33
34931;BME280;21134;49.646;8.560;2023-08-20T09:20:43;100923.72;;;28.98;64.63
34931;BME280;21134;49.646;8.560;2023-08-20T09:23:11;100918.66;;;29.08;64.39
34931;BME280;21134;49.646;8.560;2023-08-20T09:25:38;100924.31;;;29.15;65.95
34931;BME280;21134;49.646;8.560;2023-08-20T09:28:05;100928.50;;;29.30;65.07
34931;BME280;21134;49.646;8.560;2023-08-20T09:30:33;100918.66;;;29.32;64.72
34931;BME280;21134;49.646;8.560;2023-08-20T09:33:03;100924.38;;;29.50;63.31
34931;BME280;21134;49.646;8.560;2023-08-20T09:35:30;100920.53;;;29.43;63.05
34931;BME280;21134;49.646;8.560;2023-08-20T09:37:59;100916.44;;;29.39;63.72
34931;BME280;21134;49.646;8.560;2023-08-20T09:40:26;100919.00;;;29.52;62.92
34931;BME280;21134;49.646;8.560;2023-08-20T09:42:54;100917.09;;;29.78;61.85
34931;BME280;21134;49.646;8.560;2023-08-20T09:45:20;100915.94;;;29.93;61.20
34931;BME280;21134;49.646;8.560;2023-08-20T09:47:49;100920.72;;;29.99;62.06
34931;BME280;21134;49.646;8.560;2023-08-20T09:50:17;100917.84;;;29.91;61.12
34931;BME280;21134;49.646;8.560;2023-08-20T09:52:48;100927.06;;;29.85;62.50
34931;BME280;21134;49.646;8.560;2023-08-20T09:55:21;100924.50;;;29.73;61.22
34931;BME280;21134;49.646;8.560;2023-08-20T09:57:48;100922.00;;;29.82;62.20
34931;BME280;21134;49.646;8.560;2023-08-20T10:00:15;100917.50;;;29.96;61.98
34931;BME280;21134;49.646;8.560;2023-08-20T10:02:42;100919.63;;;30.26;58.72
34931;BME280;21134;49.646;8.560;2023-08-20T10:05:11;100905.81;;;30.33;58.54
34931;BME280;21134;49.646;8.560;2023-08-20T10:07:38;100910.63;;;30.40;58.99
34931;BME280;21134;49.646;8.560;2023-08-20T10:10:06;100906.56;;;30.58;58.32
34931;BME280;21134;49.646;8.560;2023-08-20T10:12:34;100905.97;;;30.54;58.25
34931;BME280;21134;49.646;8.560;2023-08-20T10:15:01;100905.34;;;30.62;57.86
34931;BME280;21134;49.646;8.560;2023-08-20T10:17:29;100906.06;;;30.64;57.52
34931;BME280;21134;49.646;8.560;2023-08-20T10:19:58;100906.78;;;30.66;57.25
34931;BME280;21134;49.646;8.560;2023-08-20T10:22:33;100905.84;;;30.78;57.45
34931;BME280;21134;49.646;8.560;2023-08-20T10:25:05;100913.03;;;30.88;57.05
34931;BME280;21134;49.646;8.560;2023-08-20T10:27:34;100912.44;;;30.73;56.95
34931;BME280;21134;49.646;8.560;2023-08-20T10:30:02;100908.09;;;30.94;57.00
34931;BME280;21134;49.646;8.560;2023-08-20T10:32:47;100914.06;;;31.08;55.92
34931;BME280;21134;49.646;8.560;2023-08-20T10:35:16;100900.00;;;31.18;54.80
34931;BME280;21134;49.646;8.560;2023-08-20T10:38:03;100907.41;;;30.92;56.03
34931;BME280;21134;49.646;8.560;2023-08-20T10:40:51;100906.28;;;30.95;55.52
34931;BME280;21134;49.646;8.560;2023-08-20T10:43:26;100905.22;;;30.97;56.08
34931;BME280;21134;49.646;8.560;2023-08-20T10:46:02;100907.59;;;31.00;55.65
34931;BME280;21134;49.646;8.560;2023-08-20T10:48:29;100897.28;;;30.97;54.66
34931;BME280;21134;49.646;8.560;2023-08-20T10:50:56;100905.78;;;31.12;53.95
34931;BME280;21134;49.646;8.560;2023-08-20T10:53:24;100897.13;;;31.10;52.60
34931;BME280;21134;49.646;8.560;2023-08-20T10:55:50;100897.13;;;31.10;52.66
34931;BME280;21134;49.646;8.560;2023-08-20T10:58:17;100896.38;;;31.19;54.61
34931;BME280;21134;49.646;8.560;2023-08-20T11:00:44;100901.50;;;31.32;52.83
34931;BME280;21134;49.646;8.560;2023-08-20T11:03:11;100898.97;;;31.42;53.71
34931;BME280;21134;49.646;8.560;2023-08-20T11:05:37;100898.81;;;31.55;53.14
34931;BME280;21134;49.646;8.560;2023-08-20T11:08:04;100897.31;;;31.62;52.62
34931;BME280;21134;49.646;8.560;2023-08-20T11:10:35;100886.22;;;31.68;53.08
34931;BME280;21134;49.646;8.560;2023-08-20T11:13:01;100893.97;;;31.81;53.30
34931;BME280;21134;49.646;8.560;2023-08-20T11:15:28;100891.66;;;31.87;51.82
34931;BME280;21134;49.646;8.560;2023-08-20T11:17:55;100887.22;;;31.88;51.37
34931;BME280;21134;49.646;8.560;2023-08-20T11:20:21;100894.25;;;31.99;51.55
34931;BME280;21134;49.646;8.560;2023-08-20T11:22:48;100889.88;;;31.88;51.61
34931;BME280;21134;49.646;8.560;2023-08-20T11:25:14;100890.13;;;31.85;51.98
34931;BME280;21134;49.646;8.560;2023-08-20T11:27:43;100888.09;;;31.77;51.33
34931;BME280;21134;49.646;8.560;2023-08-20T11:30:10;100895.28;;;31.86;50.18
34931;BME280;21134;49.646;8.560;2023-08-20T11:32:38;100886.00;;;31.92;50.55
34931;BME280;21134;49.646;8.560;2023-08-20T11:35:06;100891.41;;;31.90;50.81
34931;BME280;21134;49.646;8.560;2023-08-20T11:37:33;100888.81;;;31.79;50.59
34931;BME280;21134;49.646;8.560;2023-08-20T11:40:00;100888.91;;;31.89;49.96
34931;BME280;21134;49.646;8.560;2023-08-20T11:42:26;100891.47;;;32.00;50.64
34931;BME280;21134;49.646;8.560;2023-08-20T11:44:55;100891.16;;;32.14;50.76
34931;BME280;21134;49.646;8.560;2023-08-20T11:47:22;100886.63;;;32.26;49.54
34931;BME280;21134;49.646;8.560;2023-08-20T11:50:02;100887.03;;;32.31;50.03
34931;BME280;21134;49.646;8.560;2023-08-20T11:52:30;100876.97;;;32.46;49.21
34931;BME280;21134;49.646;8.560;2023-08-20T11:54:57;100882.59;;;32.62;48.55
34931;BME280;21134;49.646;8.560;2023-08-20T11:57:23;100887.44;;;32.57;48.62
34931;BME280;21134;49.646;8.560;2023-08-20T11:59:50;100879.50;;;32.57;47.85
34931;BME280;21134;49.646;8.560;2023-08-20T12:02:24;100881.31;;;32.57;48.40
34931;BME280;21134;49.646;8.560;2023-08-20T12:04:51;100879.72;;;32.85;48.12
34931;BME280;21134;49.646;8.560;2023-08-20T12:07:17;100877.84;;;33.06;46.87
34931;BME280;21134;49.646;8.560;2023-08-20T12:09:44;100865.69;;;33.04;46.21
34931;BME280;21134;49.646;8.560;2023-08-20T12:12:10;100866.44;;;32.75;47.35
34931;BME280;21134;49.646;8.560;2023-08-20T12:14:37;100864.34;;;32.79;47.90
34931;BME280;21134;49.646;8.560;2023-08-20T12:17:05;100859.63;;;32.82;48.30
34931;BME280;21134;49.646;8.560;2023-08-20T12:19:33;100862.31;;;33.02;47.11
34931;BME280;21134;49.646;8.560;2023-08-20T12:21:59;100858.28;;;33.17;47.27
34931;BME280;21134;49.646;8.560;2023-08-20T12:24:25;100854.81;;;33.17;46.53
34931;BME280;21134;49.646;8.560;2023-08-20T12:26:52;100853.41;;;33.03;45.83
34931;BME280;21134;49.646;8.560;2023-08-20T12:29:18;100854.09;;;33.24;46.42
34931;BME280;21134;49.646;8.560;2023-08-20T12:31:45;100850.50;;;33.54;45.09
34931;BME280;21134;49.646;8.560;2023-08-20T12:34:11;100856.88;;;33.71;45.93
34931;BME280;21134;49.646;8.560;2023-08-20T12:36:39;100856.63;;;33.55;43.57
34931;BME280;21134;49.646;8.560;2023-08-20T12:39:06;100852.00;;;33.47;43.65
34931;BME280;21134;49.646;8.560;2023-08-20T12:41:33;100854.94;;;33.64;44.69
34931;BME280;21134;49.646;8.560;2023-08-20T12:44:01;100847.84;;;33.54;43.46
34931;BME280;21134;49.646;8.560;2023-08-20T12:46:27;100851.03;;;33.58;44.33
34931;BME280;21134;49.646;8.560;2023-08-20T12:48:54;100844.06;;;33.57;44.90
34931;BME280;21134;49.646;8.560;2023-08-20T12:51:20;100848.94;;;33.62;45.55
34931;BME280;21134;49.646;8.560;2023-08-20T12:53:48;100853.69;;;33.68;45.09
34931;BME280;21134;49.646;8.560;2023-08-20T12:56:15;100842.09;;;33.59;46.50